createdAt,value
2017-07-21T00:00:54.116Z,22.57
2017-07-21T00:02:03.152Z,22.52
2017-07-21T00:03:12.285Z,22.61
2017-07-21T00:04:21.245Z,22.57
2017-07-21T00:05:30.295Z,22.57
2017-07-21T00:06:39.256Z,22.55
2017-07-21T00:07:48.632Z,22.57
2017-07-21T00:08:57.627Z,22.52
2017-07-21T00:10:06.655Z,22.51
2017-07-21T00:11:16.033Z,22.52
2017-07-21T00:12:25.169Z,22.49
2017-07-21T00:13:34.826Z,22.46
2017-07-21T00:14:43.992Z,22.47
2017-07-21T00:15:53.134Z,22.42
2017-07-21T00:17:02.505Z,22.49
2017-07-21T00:18:11.724Z,22.4
2017-07-21T00:19:20.747Z,22.35
2017-07-21T00:20:29.857Z,22.4
2017-07-21T00:21:38.824Z,22.43
2017-07-21T00:22:47.780Z,22.39
2017-07-21T00:23:56.744Z,22.43
2017-07-21T00:25:05.883Z,22.43
2017-07-21T00:26:14.911Z,22.45
2017-07-21T00:27:23.955Z,22.45
2017-07-21T00:28:32.918Z,22.46
2017-07-21T00:29:42.081Z,22.33
2017-07-21T00:30:51.056Z,22.43
2017-07-21T00:32:00.230Z,22.39
2017-07-21T00:33:09.432Z,22.37
2017-07-21T00:34:18.487Z,22.37
2017-07-21T00:35:27.484Z,22.4
2017-07-21T00:36:36.621Z,22.42
2017-07-21T00:37:45.704Z,22.4
2017-07-21T00:38:54.750Z,22.43
2017-07-21T00:40:04.393Z,22.39
2017-07-21T00:41:13.451Z,22.37
2017-07-21T00:42:22.542Z,22.24
2017-07-21T00:43:31.501Z,22.3
2017-07-21T00:44:40.638Z,22.2
2017-07-21T00:45:49.587Z,22.2
2017-07-21T00:46:58.830Z,22.25
2017-07-21T00:48:07.790Z,22.24
2017-07-21T00:49:16.929Z,22.21
2017-07-21T00:50:25.963Z,22.25
2017-07-21T00:51:35.765Z,22.21
2017-07-21T00:52:44.735Z,22.24
2017-07-21T00:53:53.820Z,22.25
2017-07-21T00:55:02.769Z,22.24
2017-07-21T00:56:11.806Z,22.27
2017-07-21T00:57:20.766Z,22.24
2017-07-21T00:58:29.917Z,22.24
2017-07-21T00:59:39.344Z,22.22
2017-07-21T01:00:48.409Z,22.22
2017-07-21T01:01:57.611Z,22.24
2017-07-21T01:03:06.609Z,22.18
2017-07-21T01:04:15.677Z,22.27
2017-07-21T01:05:24.627Z,22.2
2017-07-21T01:06:33.745Z,22.22
2017-07-21T01:07:42.707Z,22.25
2017-07-21T01:08:51.747Z,22.14
2017-07-21T01:10:00.708Z,22.2
2017-07-21T01:11:09.852Z,22.12
2017-07-21T01:12:18.806Z,22.14
2017-07-21T01:13:27.841Z,22.17
2017-07-21T01:14:36.805Z,22.14
2017-07-21T01:15:45.896Z,22.12
2017-07-21T01:16:55.001Z,22.07
2017-07-21T01:18:04.028Z,22.09
2017-07-21T01:19:13.541Z,22.09
2017-07-21T01:20:22.669Z,22.12
2017-07-21T01:21:31.676Z,21.98
2017-07-21T01:22:40.827Z,22.02
2017-07-21T01:23:49.811Z,22.07
2017-07-21T01:24:59.007Z,22.03
2017-07-21T01:26:08.035Z,22.02
2017-07-21T01:27:17.418Z,22.12
2017-07-21T01:28:26.390Z,22.14
2017-07-21T01:29:35.583Z,22.1
2017-07-21T01:30:44.537Z,22.06
2017-07-21T01:31:53.777Z,22.03
2017-07-21T01:33:02.814Z,22.14
2017-07-21T01:34:11.801Z,22.15
2017-07-21T01:35:20.761Z,22.03
2017-07-21T01:36:29.814Z,22.03
2017-07-21T01:37:38.882Z,22.06
2017-07-21T01:38:47.985Z,22.05
2017-07-21T01:39:57.008Z,21.98
2017-07-21T01:41:05.983Z,22.03
2017-07-21T01:42:15.573Z,21.98
2017-07-21T01:43:24.531Z,21.99
2017-07-21T01:44:33.660Z,22.07
2017-07-21T01:45:42.674Z,22.07
2017-07-21T01:46:51.796Z,22.1
2017-07-21T01:48:00.755Z,22
2017-07-21T01:49:10.189Z,22.02
2017-07-21T01:50:19.159Z,21.98
2017-07-21T01:51:28.381Z,22.09
2017-07-21T01:52:37.378Z,21.98
2017-07-21T01:53:46.410Z,22.06
2017-07-21T01:54:55.466Z,21.98
2017-07-21T01:56:04.528Z,21.99
2017-07-21T01:57:13.541Z,22
2017-07-21T01:58:23.006Z,22.02
2017-07-21T01:59:32.011Z,22.02
2017-07-21T02:00:41.073Z,22.02
2017-07-21T02:01:50.200Z,22.03
2017-07-21T02:02:59.157Z,22.03
2017-07-21T02:04:08.497Z,22
2017-07-21T02:05:17.470Z,21.99
2017-07-21T02:06:26.595Z,22
2017-07-21T02:07:35.583Z,21.99
2017-07-21T02:08:44.839Z,21.99
2017-07-21T02:09:53.807Z,21.92
2017-07-21T02:11:03.071Z,21.94
2017-07-21T02:12:12.047Z,21.92
2017-07-21T02:13:21.197Z,21.92
2017-07-21T02:14:30.160Z,21.84
2017-07-21T02:15:39.163Z,21.91
2017-07-21T02:16:48.122Z,21.9
2017-07-21T02:17:57.077Z,21.82
2017-07-21T02:19:06.359Z,21.83
2017-07-21T02:20:15.638Z,21.88
2017-07-21T02:21:24.928Z,21.8
2017-07-21T02:22:34.241Z,21.77
2017-07-21T02:23:43.522Z,21.88
2017-07-21T02:24:52.486Z,21.86
2017-07-21T02:26:01.469Z,21.82
2017-07-21T02:27:10.435Z,21.82
2017-07-21T02:28:19.395Z,21.79
2017-07-21T02:29:28.363Z,21.8
2017-07-21T02:30:37.322Z,21.74
2017-07-21T02:31:46.289Z,21.8
2017-07-21T02:32:55.245Z,21.82
2017-07-21T02:34:04.204Z,21.8
2017-07-21T02:35:13.170Z,21.79
2017-07-21T02:36:22.126Z,21.82
2017-07-21T02:37:31.080Z,21.8
2017-07-21T02:38:40.045Z,21.74
2017-07-21T02:39:49.005Z,21.77
2017-07-21T02:40:57.982Z,21.71
2017-07-21T02:42:06.941Z,21.75
2017-07-21T02:43:15.894Z,21.72
2017-07-21T02:44:24.847Z,21.72
2017-07-21T02:45:34.128Z,21.74
2017-07-21T02:46:43.080Z,21.72
2017-07-21T02:47:52.045Z,21.77
2017-07-21T02:49:01.001Z,21.72
2017-07-21T02:50:10.293Z,21.71
2017-07-21T02:51:19.252Z,21.72
2017-07-21T02:52:28.209Z,21.59
2017-07-21T02:53:37.171Z,21.69
2017-07-21T02:54:46.135Z,21.71
2017-07-21T02:55:55.116Z,21.64
2017-07-21T02:57:04.085Z,21.74
2017-07-21T02:58:13.045Z,21.62
2017-07-21T02:59:22.017Z,21.59
2017-07-21T03:00:30.972Z,21.61
2017-07-21T03:01:40.241Z,21.56
2017-07-21T03:02:49.198Z,21.62
2017-07-21T03:03:58.158Z,21.58
2017-07-21T03:05:07.124Z,21.64
2017-07-21T03:06:16.084Z,21.53
2017-07-21T03:07:25.044Z,21.53
2017-07-21T03:08:34.009Z,21.58
2017-07-21T03:09:42.975Z,21.61
2017-07-21T03:10:51.929Z,21.54
2017-07-21T03:12:00.879Z,21.54
2017-07-21T03:13:09.840Z,21.52
2017-07-21T03:14:18.801Z,21.46
2017-07-21T03:15:27.760Z,21.47
2017-07-21T03:16:36.724Z,21.47
2017-07-21T03:17:46.002Z,21.44
2017-07-21T03:18:54.957Z,21.44
2017-07-21T03:20:03.921Z,21.44
2017-07-21T03:21:12.879Z,21.43
2017-07-21T03:22:21.843Z,21.43
2017-07-21T03:23:30.814Z,21.42
2017-07-21T03:24:39.780Z,21.43
2017-07-21T03:25:48.732Z,21.4
2017-07-21T03:26:58.009Z,21.35
2017-07-21T03:28:06.970Z,21.37
2017-07-21T03:29:15.923Z,21.35
2017-07-21T03:30:27.929Z,21.38
2017-07-21T03:31:37.194Z,21.35
2017-07-21T03:32:46.151Z,21.29
2017-07-21T03:33:55.105Z,21.43
2017-07-21T03:35:04.064Z,21.38
2017-07-21T03:36:13.021Z,21.35
2017-07-21T03:37:22.061Z,21.35
2017-07-21T03:38:31.028Z,21.35
2017-07-21T03:39:40.081Z,21.38
2017-07-21T03:40:49.091Z,21.37
2017-07-21T03:41:58.051Z,21.27
2017-07-21T03:43:07.016Z,21.37
2017-07-21T03:44:15.973Z,21.29
2017-07-21T03:45:24.931Z,21.34
2017-07-21T03:46:33.894Z,21.38
2017-07-21T03:47:42.856Z,21.37
2017-07-21T03:48:51.814Z,21.28
2017-07-21T03:50:00.774Z,21.27
2017-07-21T03:51:09.728Z,21.27
2017-07-21T03:52:18.685Z,21.22
2017-07-21T03:53:27.639Z,21.31
2017-07-21T03:54:36.922Z,21.22
2017-07-21T03:55:45.881Z,21.29
2017-07-21T03:56:55.159Z,21.27
2017-07-21T03:58:04.111Z,21.27
2017-07-21T03:59:13.070Z,21.25
2017-07-21T04:00:22.068Z,21.28
2017-07-21T04:01:31.032Z,21.22
2017-07-21T04:02:39.984Z,21.25
2017-07-21T04:03:48.962Z,21.22
2017-07-21T04:04:58.246Z,21.22
2017-07-21T04:06:07.195Z,21.32
2017-07-21T04:07:16.152Z,21.32
2017-07-21T04:08:25.123Z,21.31
2017-07-21T04:09:34.080Z,21.37
2017-07-21T04:10:43.036Z,21.35
2017-07-21T04:11:51.991Z,21.32
2017-07-21T04:13:00.945Z,21.28
2017-07-21T04:14:09.904Z,21.31
2017-07-21T04:15:18.868Z,21.21
2017-07-21T04:16:27.827Z,21.21
2017-07-21T04:17:36.777Z,21.27
2017-07-21T04:18:45.737Z,21.27
2017-07-21T04:19:54.699Z,21.24
2017-07-21T04:21:03.988Z,21.16
2017-07-21T04:22:12.938Z,21.19
2017-07-21T04:23:21.898Z,21.13
2017-07-21T04:24:30.852Z,21.17
2017-07-21T04:25:39.816Z,21.1
2017-07-21T04:26:48.769Z,21.19
2017-07-21T04:27:57.728Z,21.14
2017-07-21T04:29:06.685Z,21.16
2017-07-21T04:30:15.635Z,21.13
2017-07-21T04:31:24.592Z,21.13
2017-07-21T04:32:33.558Z,21.1
2017-07-21T04:33:42.511Z,21.1
2017-07-21T04:34:51.461Z,21.07
2017-07-21T04:36:00.416Z,21.16
2017-07-21T04:37:09.369Z,21.21
2017-07-21T04:38:18.333Z,21.13
2017-07-21T04:39:27.308Z,21.16
2017-07-21T04:40:36.260Z,21.12
2017-07-21T04:41:45.221Z,21.16
2017-07-21T04:42:54.192Z,21.12
2017-07-21T04:44:03.153Z,21.12
2017-07-21T04:45:12.105Z,21.14
2017-07-21T04:46:21.066Z,21.1
2017-07-21T04:47:30.353Z,21.09
2017-07-21T04:48:39.308Z,21.1
2017-07-21T04:49:48.263Z,21.1
2017-07-21T04:50:57.220Z,21.14
2017-07-21T04:52:06.181Z,21.16
2017-07-21T04:53:15.138Z,21.16
2017-07-21T04:54:24.095Z,21.17
2017-07-21T04:55:33.053Z,21.12
2017-07-21T04:56:42.017Z,21.14
2017-07-21T04:57:50.973Z,21.14
2017-07-21T04:58:59.931Z,21.16
2017-07-21T05:00:08.896Z,21.12
2017-07-21T05:01:17.852Z,21.1
2017-07-21T05:02:26.814Z,21.14
2017-07-21T05:03:36.115Z,21.19
2017-07-21T05:04:45.077Z,21.12
2017-07-21T05:05:54.045Z,21.12
2017-07-21T05:07:03.004Z,21.16
2017-07-21T05:08:11.965Z,21.17
2017-07-21T05:09:21.243Z,21.17
2017-07-21T05:10:30.211Z,21.17
2017-07-21T05:11:39.169Z,21.13
2017-07-21T05:12:48.122Z,21.14
2017-07-21T05:13:57.077Z,21.19
2017-07-21T05:15:06.371Z,21.21
2017-07-21T05:16:15.326Z,21.16
2017-07-21T05:17:24.287Z,21.21
2017-07-21T05:18:33.261Z,21.27
2017-07-21T05:19:42.222Z,21.25
2017-07-21T05:20:51.178Z,21.29
2017-07-21T05:22:00.135Z,21.25
2017-07-21T05:23:09.106Z,21.25
2017-07-21T05:24:18.077Z,21.22
2017-07-21T05:25:27.035Z,21.29
2017-07-21T05:26:36.319Z,21.28
2017-07-21T05:27:45.281Z,21.24
2017-07-21T05:28:54.245Z,21.27
2017-07-21T05:30:03.207Z,21.22
2017-07-21T05:31:12.172Z,21.19
2017-07-21T05:32:21.132Z,21.17
2017-07-21T05:33:30.092Z,21.19
2017-07-21T05:34:39.050Z,21.17
2017-07-21T05:35:48.013Z,21.19
2017-07-21T05:36:56.974Z,21.17
2017-07-21T05:38:05.934Z,21.17
2017-07-21T05:39:14.891Z,21.14
2017-07-21T05:40:23.873Z,21.27
2017-07-21T05:41:32.828Z,21.25
2017-07-21T05:42:42.113Z,21.19
2017-07-21T05:43:51.109Z,21.25
2017-07-21T05:45:00.079Z,21.25
2017-07-21T05:46:09.042Z,21.28
2017-07-21T05:47:18.026Z,21.34
2017-07-21T05:48:26.997Z,21.4
2017-07-21T05:49:35.975Z,21.4
2017-07-21T05:50:44.935Z,21.4
2017-07-21T05:51:53.906Z,21.43
2017-07-21T05:53:02.881Z,21.47
2017-07-21T05:54:12.169Z,21.43
2017-07-21T05:55:21.486Z,21.52
2017-07-21T05:56:30.456Z,21.54
2017-07-21T05:57:39.738Z,21.52
2017-07-21T05:58:48.701Z,21.53
2017-07-21T05:59:57.649Z,21.56
2017-07-21T06:01:06.610Z,21.59
2017-07-21T06:02:15.583Z,21.52
2017-07-21T06:03:24.534Z,21.64
2017-07-21T06:04:33.490Z,21.65
2017-07-21T06:05:42.459Z,21.64
2017-07-21T06:06:51.417Z,21.61
2017-07-21T06:08:00.688Z,21.53
2017-07-21T06:09:09.662Z,21.69
2017-07-21T06:10:18.624Z,21.62
2017-07-21T06:11:27.584Z,21.56
2017-07-21T06:12:36.541Z,21.68
2017-07-21T06:13:45.510Z,21.58
2017-07-21T06:14:54.469Z,21.72
2017-07-21T06:16:03.428Z,21.74
2017-07-21T06:17:12.396Z,21.67
2017-07-21T06:18:21.353Z,21.67
2017-07-21T06:19:30.314Z,21.8
2017-07-21T06:20:39.274Z,21.8
2017-07-21T06:21:48.242Z,21.8
2017-07-21T06:22:57.533Z,21.82
2017-07-21T06:24:06.823Z,21.83
2017-07-21T06:25:15.785Z,21.91
2017-07-21T06:26:24.742Z,21.9
2017-07-21T06:27:33.702Z,21.9
2017-07-21T06:28:42.897Z,21.98
2017-07-21T06:29:52.886Z,22
2017-07-21T06:31:04.119Z,22.02
2017-07-21T06:32:15.209Z,21.99
2017-07-21T06:33:24.746Z,22.02
2017-07-21T06:34:34.623Z,22.09
2017-07-21T06:35:44.039Z,22.05
2017-07-21T06:36:53.911Z,22.02
2017-07-21T06:38:04.140Z,22.15
2017-07-21T06:39:14.600Z,22.09
2017-07-21T06:40:25.491Z,22.12
2017-07-21T06:41:36.926Z,22.15
2017-07-21T06:42:47.773Z,22.18
2017-07-21T06:43:58.092Z,22.17
2017-07-21T06:45:08.846Z,22.18
2017-07-21T06:46:19.003Z,22.17
2017-07-21T06:47:29.519Z,22.1
2017-07-21T06:48:40.194Z,22.15
2017-07-21T06:49:51.165Z,22.25
2017-07-21T06:51:01.285Z,22.27
2017-07-21T06:52:11.403Z,22.39
2017-07-21T06:53:22.570Z,22.33
2017-07-21T06:54:33.890Z,22.33
2017-07-21T06:55:45.355Z,22.35
2017-07-21T06:56:55.373Z,22.31
2017-07-21T06:58:06.219Z,22.39
2017-07-21T06:59:15.884Z,22.43
2017-07-21T07:00:27.929Z,22.39
2017-07-21T07:01:38.121Z,22.47
2017-07-21T07:02:47.873Z,22.43
2017-07-21T07:03:57.663Z,22.52
2017-07-21T07:05:08.161Z,22.55
2017-07-21T07:06:18.003Z,22.55
2017-07-21T07:07:28.946Z,22.6
2017-07-21T07:08:39.183Z,22.67
2017-07-21T07:09:49.509Z,22.57
2017-07-21T07:11:00.446Z,22.64
2017-07-21T07:12:11.183Z,22.67
2017-07-21T07:13:21.605Z,22.72
2017-07-21T07:14:31.917Z,22.68
2017-07-21T07:15:41.367Z,22.68
2017-07-21T07:16:52.752Z,22.76
2017-07-21T07:18:03.291Z,22.72
2017-07-21T07:19:12.994Z,22.68
2017-07-21T07:20:22.502Z,22.64
2017-07-21T07:21:32.000Z,22.7
2017-07-21T07:22:41.317Z,22.68
2017-07-21T07:23:50.649Z,22.75
2017-07-21T07:25:00.007Z,22.75
2017-07-21T07:26:11.472Z,22.77
2017-07-21T07:27:21.870Z,22.68
2017-07-21T07:28:32.131Z,22.75
2017-07-21T07:29:41.512Z,22.76
2017-07-21T07:30:51.535Z,22.88
2017-07-21T07:32:00.938Z,22.92
2017-07-21T07:33:11.089Z,22.85
2017-07-21T07:34:22.183Z,22.85
2017-07-21T07:35:33.153Z,22.83
2017-07-21T07:36:44.265Z,22.86
2017-07-21T07:37:54.237Z,22.86
2017-07-21T07:39:03.982Z,22.85
2017-07-21T07:40:13.935Z,22.83
2017-07-21T07:41:23.373Z,22.86
2017-07-21T07:42:32.965Z,22.91
2017-07-21T07:43:43.080Z,22.9
2017-07-21T07:44:52.658Z,22.92
2017-07-21T07:46:02.734Z,23
2017-07-21T07:47:12.804Z,22.95
2017-07-21T07:48:22.287Z,22.91
2017-07-21T07:49:31.850Z,22.9
2017-07-21T07:50:41.798Z,22.92
2017-07-21T07:51:51.062Z,22.92
2017-07-21T07:53:00.470Z,22.92
2017-07-21T07:54:09.584Z,22.92
2017-07-21T07:55:18.619Z,22.95
2017-07-21T07:56:27.586Z,23
2017-07-21T07:57:36.990Z,22.91
2017-07-21T07:58:46.276Z,23.04
2017-07-21T07:59:55.384Z,23.09
2017-07-21T08:01:04.366Z,23.09
2017-07-21T08:02:13.322Z,23.09
2017-07-21T08:03:22.373Z,23.01
2017-07-21T08:04:31.374Z,23.05
2017-07-21T08:05:40.334Z,22.95
2017-07-21T08:06:49.698Z,23.02
2017-07-21T08:07:58.770Z,23
2017-07-21T08:09:07.743Z,23
2017-07-21T08:10:16.717Z,22.98
2017-07-21T08:11:25.718Z,23.04
2017-07-21T08:12:34.771Z,23.09
2017-07-21T08:13:43.840Z,23.13
2017-07-21T08:14:52.858Z,23.12
2017-07-21T08:16:01.817Z,23.04
2017-07-21T08:17:11.091Z,23.09
2017-07-21T08:18:20.428Z,23.12
2017-07-21T08:19:29.589Z,23.16
2017-07-21T08:20:38.648Z,23.19
2017-07-21T08:21:47.649Z,23.13
2017-07-21T08:22:56.749Z,23.1
2017-07-21T08:24:05.825Z,23.1
2017-07-21T08:25:15.438Z,23.15
2017-07-21T08:26:24.486Z,23.07
2017-07-21T08:27:33.453Z,23
2017-07-21T08:28:42.408Z,23.04
2017-07-21T08:29:51.501Z,23
2017-07-21T08:31:00.463Z,23.05
2017-07-21T08:32:09.410Z,23.07
2017-07-21T08:33:18.378Z,22.98
2017-07-21T08:34:27.374Z,23.05
2017-07-21T08:35:36.664Z,23.02
2017-07-21T08:36:45.623Z,23.04
2017-07-21T08:37:54.587Z,23.09
2017-07-21T08:39:03.574Z,23.09
2017-07-21T08:40:12.535Z,23.01
2017-07-21T08:41:21.821Z,23.1
2017-07-21T08:42:30.800Z,23.07
2017-07-21T08:43:39.752Z,23.02
2017-07-21T08:44:48.714Z,22.98
2017-07-21T08:45:57.670Z,23.02
2017-07-21T08:47:06.624Z,23
2017-07-21T08:48:15.574Z,23.04
2017-07-21T08:49:24.538Z,23.13
2017-07-21T08:50:33.508Z,23.1
2017-07-21T08:51:42.469Z,23.15
2017-07-21T08:52:51.428Z,23.07
2017-07-21T08:54:00.390Z,23.16
2017-07-21T08:55:09.341Z,23.16
2017-07-21T08:56:18.297Z,23.27
2017-07-21T08:57:27.259Z,23.16
2017-07-21T08:58:36.222Z,23.28
2017-07-21T08:59:45.180Z,23.22
2017-07-21T09:00:54.148Z,23.16
2017-07-21T09:02:03.108Z,23.1
2017-07-21T09:03:12.065Z,23.17
2017-07-21T09:04:21.023Z,23.25
2017-07-21T09:05:30.311Z,23.28
2017-07-21T09:06:39.277Z,23.33
2017-07-21T09:07:48.235Z,23.2
2017-07-21T09:08:57.194Z,23.23
2017-07-21T09:10:06.148Z,23.27
2017-07-21T09:11:15.112Z,23.28
2017-07-21T09:12:24.092Z,23.31
2017-07-21T09:13:33.050Z,23.31
2017-07-21T09:14:42.016Z,23.38
2017-07-21T09:15:50.973Z,23.33
2017-07-21T09:16:59.933Z,23.38
2017-07-21T09:18:08.885Z,23.4
2017-07-21T09:19:17.846Z,23.35
2017-07-21T09:20:26.810Z,23.46
2017-07-21T09:21:35.777Z,23.5
2017-07-21T09:22:44.747Z,23.48
2017-07-21T09:23:53.701Z,23.54
2017-07-21T09:25:02.674Z,23.39
2017-07-21T09:26:11.955Z,23.39
2017-07-21T09:27:20.924Z,23.43
2017-07-21T09:28:30.203Z,23.48
2017-07-21T09:29:39.193Z,23.54
2017-07-21T09:30:48.155Z,23.6
2017-07-21T09:31:57.122Z,23.54
2017-07-21T09:33:06.098Z,23.43
2017-07-21T09:34:15.061Z,23.53
2017-07-21T09:35:24.356Z,23.51
2017-07-21T09:36:33.320Z,23.47
2017-07-21T09:37:42.622Z,23.46
2017-07-21T09:38:51.590Z,23.61
2017-07-21T09:40:00.551Z,23.69
2017-07-21T09:41:09.506Z,23.76
2017-07-21T09:42:18.486Z,23.79
2017-07-21T09:43:27.771Z,23.79
2017-07-21T09:44:36.735Z,23.73
2017-07-21T09:45:45.688Z,23.83
2017-07-21T09:46:54.644Z,23.87
2017-07-21T09:48:03.607Z,23.85
2017-07-21T09:49:12.578Z,23.91
2017-07-21T09:50:21.537Z,23.93
2017-07-21T09:51:30.501Z,23.97
2017-07-21T09:52:39.458Z,24.03
2017-07-21T09:53:48.496Z,24.08
2017-07-21T09:54:57.444Z,24.12
2017-07-21T09:56:06.399Z,24.09
2017-07-21T09:57:15.366Z,24.13
2017-07-21T09:58:25.900Z,24.03
2017-07-21T09:59:35.743Z,24.02
2017-07-21T10:00:45.253Z,24.09
2017-07-21T10:01:54.776Z,24
2017-07-21T10:03:04.375Z,24.09
2017-07-21T10:04:13.636Z,24.12
2017-07-21T10:05:22.588Z,24.13
2017-07-21T10:06:31.661Z,24.2
2017-07-21T10:07:40.813Z,24.16
2017-07-21T10:08:49.770Z,24.15
2017-07-21T10:10:14.639Z,24.13
2017-07-21T10:11:23.598Z,24.22
2017-07-21T10:12:32.891Z,24.3
2017-07-21T10:13:41.849Z,24.34
2017-07-21T10:14:50.890Z,24.43
2017-07-21T10:15:59.999Z,24.37
2017-07-21T10:17:09.004Z,24.39
2017-07-21T10:18:17.971Z,24.49
2017-07-21T10:19:26.932Z,24.57
2017-07-21T10:20:35.897Z,24.58
2017-07-21T10:21:44.855Z,24.57
2017-07-21T10:22:53.816Z,24.65
2017-07-21T10:24:02.781Z,24.73
2017-07-21T10:25:11.746Z,24.78
2017-07-21T10:26:20.703Z,24.85
2017-07-21T10:27:29.667Z,24.88
2017-07-21T10:28:38.631Z,24.88
2017-07-21T10:29:47.602Z,24.96
2017-07-21T10:30:56.578Z,24.91
2017-07-21T10:32:05.545Z,24.87
2017-07-21T10:33:14.576Z,24.95
2017-07-21T10:34:23.540Z,24.95
2017-07-21T10:35:32.832Z,25
2017-07-21T10:36:41.785Z,25.03
2017-07-21T10:37:51.072Z,25.02
2017-07-21T10:39:00.036Z,24.96
2017-07-21T10:40:09.000Z,24.96
2017-07-21T10:41:17.962Z,25.13
2017-07-21T10:42:26.922Z,25.05
2017-07-21T10:43:35.880Z,25.02
2017-07-21T10:44:44.846Z,25.05
2017-07-21T10:45:53.828Z,25
2017-07-21T10:47:02.789Z,24.96
2017-07-21T10:48:11.748Z,25
2017-07-21T10:49:20.709Z,24.95
2017-07-21T10:50:29.678Z,25.09
2017-07-21T10:51:38.655Z,25.05
2017-07-21T10:52:47.636Z,25.15
2017-07-21T10:53:56.592Z,25.1
2017-07-21T10:55:05.556Z,25.13
2017-07-21T10:56:14.523Z,25.2
2017-07-21T10:57:23.485Z,25.15
2017-07-21T10:58:32.769Z,25.13
2017-07-21T10:59:41.733Z,25.2
2017-07-21T11:00:50.688Z,25.1
2017-07-21T11:01:59.644Z,25.14
2017-07-21T11:03:08.608Z,25.17
2017-07-21T11:04:17.571Z,25.25
2017-07-21T11:05:26.527Z,25.17
2017-07-21T11:06:35.819Z,25.2
2017-07-21T11:07:44.769Z,25.21
2017-07-21T11:08:54.060Z,25.27
2017-07-21T11:10:03.021Z,25.23
2017-07-21T11:11:12.299Z,25.2
2017-07-21T11:12:21.388Z,25.18
2017-07-21T11:13:30.369Z,25.18
2017-07-21T11:14:39.438Z,25.1
2017-07-21T11:15:48.428Z,25.09
2017-07-21T11:16:57.393Z,25.15
2017-07-21T11:18:06.426Z,25.18
2017-07-21T11:19:15.620Z,25.21
2017-07-21T11:20:24.977Z,25.23
2017-07-21T11:21:33.933Z,25.2
2017-07-21T11:22:42.898Z,25.21
2017-07-21T11:23:51.857Z,25.27
2017-07-21T11:25:01.178Z,25.23
2017-07-21T11:26:10.187Z,25.23
2017-07-21T11:27:19.238Z,25.27
2017-07-21T11:28:28.208Z,25.21
2017-07-21T11:29:37.163Z,25.24
2017-07-21T11:30:46.278Z,25.28
2017-07-21T11:31:55.271Z,25.32
2017-07-21T11:33:04.303Z,25.32
2017-07-21T11:34:13.338Z,25.38
2017-07-21T11:35:22.358Z,25.43
2017-07-21T11:36:31.425Z,25.42
2017-07-21T11:37:40.475Z,25.43
2017-07-21T11:38:49.819Z,25.38
2017-07-21T11:39:58.960Z,25.47
2017-07-21T11:41:07.979Z,25.46
2017-07-21T11:42:16.966Z,25.52
2017-07-21T11:43:25.956Z,25.51
2017-07-21T11:44:34.996Z,25.45
2017-07-21T11:45:50.622Z,25.47
2017-07-21T11:47:06.266Z,25.4
2017-07-21T11:48:15.313Z,25.45
2017-07-21T11:49:24.296Z,25.43
2017-07-21T11:50:33.273Z,25.47
2017-07-21T11:51:42.265Z,25.39
2017-07-21T11:52:51.242Z,25.36
2017-07-21T11:54:00.226Z,25.38
2017-07-21T11:55:09.218Z,25.42
2017-07-21T11:56:18.196Z,25.51
2017-07-21T11:57:27.180Z,25.54
2017-07-21T11:58:36.165Z,25.5
2017-07-21T11:59:45.150Z,25.51
2017-07-21T12:00:54.143Z,25.51
2017-07-21T12:02:03.444Z,25.57
2017-07-21T12:03:12.437Z,25.52
2017-07-21T12:04:21.429Z,25.54
2017-07-21T12:05:30.408Z,25.54
2017-07-21T12:06:39.397Z,25.55
2017-07-21T12:07:48.383Z,25.69
2017-07-21T12:08:57.379Z,25.62
2017-07-21T12:10:06.373Z,25.7
2017-07-21T12:11:15.352Z,25.69
2017-07-21T12:12:24.339Z,25.69
2017-07-21T12:13:33.329Z,25.64
2017-07-21T12:14:42.316Z,25.7
2017-07-21T12:15:51.314Z,25.64
2017-07-21T12:17:00.309Z,25.57
2017-07-21T12:18:09.287Z,25.57
2017-07-21T12:19:18.300Z,25.57
2017-07-21T12:20:27.279Z,25.6
2017-07-21T12:21:36.271Z,25.55
2017-07-21T12:22:45.268Z,25.55
2017-07-21T12:23:54.616Z,25.62
2017-07-21T12:25:03.910Z,25.6
2017-07-21T12:26:12.878Z,25.58
2017-07-21T12:27:21.839Z,25.57
2017-07-21T12:28:30.919Z,25.55
2017-07-21T12:29:40.284Z,25.51
2017-07-21T12:30:49.306Z,25.52
2017-07-21T12:31:58.396Z,25.54
2017-07-21T12:33:07.359Z,25.54
2017-07-21T12:34:16.544Z,25.57
2017-07-21T12:35:25.605Z,25.55
2017-07-21T12:36:34.576Z,25.52
2017-07-21T12:37:43.542Z,25.55
2017-07-21T12:38:52.592Z,25.51
2017-07-21T12:40:01.591Z,25.55
2017-07-21T12:41:10.676Z,25.6
2017-07-21T12:42:19.673Z,25.57
2017-07-21T12:43:28.749Z,25.57
2017-07-21T12:44:37.738Z,25.58
2017-07-21T12:45:47.183Z,25.54
2017-07-21T12:46:56.148Z,25.52
2017-07-21T12:48:05.119Z,25.61
2017-07-21T12:49:14.119Z,25.61
2017-07-21T12:50:23.138Z,25.58
2017-07-21T12:51:32.229Z,25.7
2017-07-21T12:52:41.421Z,25.7
2017-07-21T12:53:50.447Z,25.7
2017-07-21T12:54:59.433Z,25.7
2017-07-21T12:56:08.395Z,25.69
2017-07-21T12:57:17.349Z,25.73
2017-07-21T12:58:26.394Z,25.73
2017-07-21T12:59:35.377Z,25.72
2017-07-21T13:00:44.486Z,25.79
2017-07-21T13:01:53.528Z,25.8
2017-07-21T13:03:02.905Z,25.77
2017-07-21T13:04:11.878Z,25.91
2017-07-21T13:05:20.845Z,25.97
2017-07-21T13:06:30.194Z,25.87
2017-07-21T13:07:39.165Z,25.88
2017-07-21T13:08:48.182Z,25.88
2017-07-21T13:09:57.146Z,25.79
2017-07-21T13:11:06.234Z,25.83
2017-07-21T13:12:15.192Z,25.88
2017-07-21T13:13:24.605Z,25.9
2017-07-21T13:14:33.620Z,25.94
2017-07-21T13:15:42.665Z,25.91
2017-07-21T13:16:51.652Z,25.92
2017-07-21T13:18:01.157Z,25.91
2017-07-21T13:19:10.207Z,25.9
2017-07-21T13:20:19.171Z,25.91
2017-07-21T13:21:28.517Z,25.99
2017-07-21T13:22:37.484Z,26.01
2017-07-21T13:23:46.437Z,25.99
2017-07-21T13:24:55.478Z,26.06
2017-07-21T13:26:04.438Z,26.1
2017-07-21T13:27:13.407Z,25.98
2017-07-21T13:28:22.379Z,26.1
2017-07-21T13:29:31.350Z,26.15
2017-07-21T13:30:40.955Z,26.21
2017-07-21T13:31:49.924Z,26.18
2017-07-21T13:33:00.403Z,26.28
2017-07-21T13:34:11.911Z,26.3
2017-07-21T13:35:21.659Z,26.28
2017-07-21T13:36:30.625Z,26.32
2017-07-21T13:37:39.643Z,26.37
2017-07-21T13:38:48.605Z,26.47
2017-07-21T13:39:57.591Z,26.51
2017-07-21T13:41:06.877Z,26.4
2017-07-21T13:42:16.027Z,26.45
2017-07-21T13:43:24.992Z,26.57
2017-07-21T13:44:33.959Z,26.58
2017-07-21T13:45:42.919Z,26.66
2017-07-21T13:46:51.881Z,26.58
2017-07-21T13:48:00.852Z,26.69
2017-07-21T13:49:09.811Z,26.73
2017-07-21T13:50:18.774Z,26.75
2017-07-21T13:51:28.064Z,26.76
2017-07-21T13:52:37.031Z,26.75
2017-07-21T13:53:46.907Z,26.75
2017-07-21T13:54:56.949Z,26.8
2017-07-21T13:56:05.950Z,26.73
2017-07-21T13:57:15.337Z,26.76
2017-07-21T13:58:24.298Z,26.81
2017-07-21T13:59:33.264Z,26.84
2017-07-21T14:00:42.231Z,26.81
2017-07-21T14:01:52.118Z,26.87
2017-07-21T14:03:01.508Z,26.97
2017-07-21T14:04:10.532Z,26.89
2017-07-21T14:05:20.034Z,26.95
2017-07-21T14:06:30.202Z,26.91
2017-07-21T14:07:39.200Z,26.89
2017-07-21T14:08:48.152Z,26.91
2017-07-21T14:09:57.126Z,26.92
2017-07-21T14:11:06.083Z,26.89
2017-07-21T14:12:15.042Z,26.94
2017-07-21T14:13:24.009Z,26.89
2017-07-21T14:14:33.288Z,26.8
2017-07-21T14:15:42.252Z,26.81
2017-07-21T14:16:51.217Z,26.84
2017-07-21T14:18:00.191Z,26.8
2017-07-21T14:19:09.396Z,26.81
2017-07-21T14:20:18.481Z,26.8
2017-07-21T14:21:27.534Z,26.82
2017-07-21T14:22:36.504Z,26.88
2017-07-21T14:23:45.576Z,26.87
2017-07-21T14:24:54.691Z,26.91
2017-07-21T14:26:03.744Z,26.92
2017-07-21T14:27:13.039Z,26.87
2017-07-21T14:28:22.028Z,26.92
2017-07-21T14:29:31.101Z,26.92
2017-07-21T14:30:40.066Z,26.89
2017-07-21T14:31:49.033Z,26.91
2017-07-21T14:32:58.125Z,26.92
2017-07-21T14:34:07.140Z,26.99
2017-07-21T14:35:16.120Z,26.95
2017-07-21T14:36:25.105Z,26.94
2017-07-21T14:37:34.672Z,26.92
2017-07-21T14:38:43.636Z,26.97
2017-07-21T14:39:52.656Z,26.95
2017-07-21T14:41:01.722Z,26.91
2017-07-21T14:42:10.684Z,26.92
2017-07-21T14:43:19.649Z,26.91
2017-07-21T14:44:28.612Z,26.94
2017-07-21T14:45:37.608Z,26.89
2017-07-21T14:46:46.664Z,26.92
2017-07-21T14:47:55.631Z,26.89
2017-07-21T14:49:04.657Z,26.91
2017-07-21T14:50:13.667Z,26.84
2017-07-21T14:51:23.017Z,26.88
2017-07-21T14:52:31.983Z,26.76
2017-07-21T14:53:41.066Z,26.75
2017-07-21T14:54:50.025Z,26.77
2017-07-21T14:55:59.627Z,26.8